Date,TemperatureHighF,TemperatureAvgF,TemperatureLowF,DewpointHighF,DewpointAvgF,DewpointLowF,HumidityHigh,HumidityAvg,HumidityLow,PressureMaxIn,PressureMinIn,WindSpeedMaxMPH,WindSpeedAvgMPH,GustSpeedMaxMPH,PrecipitationSumIn
2013-10-1,62.8,55.0,50.9,49.5,46.9,45.1,83,74,56,29.46,29.38,0,0,0,0.04
2013-10-2,58.5,55.5,52.9,53.9,51.2,47.8,93,85,78,29.40,29.30,0,0,0,0.00
2013-10-3,64.0,58.1,55.2,61.4,56.3,53.2,95,94,88,29.31,29.08,0,0,0,0.00
2013-10-4,63.0,57.2,54.1,61.5,55.4,51.6,96,94,88,29.36,29.07,0,0,0,0.00
2013-10-5,59.7,54.9,50.5,56.2,51.5,47.3,93,88,80,29.63,29.36,0,0,0,0.00
2013-10-6,63.3,58.3,50.7,60.3,55.3,47.3,93,90,87,29.64,29.57,0,0,0,0.00
2013-10-7,69.1,62.0,58.8,62.5,57.7,54.9,91,86,77,29.61,29.51,0,0,0,0.00
2013-10-8,61.0,56.3,50.9,57.1,52.3,46.1,93,87,79,29.70,29.51,0,0,0,0.00
2013-10-9,52.2,48.9,44.2,46.9,41.0,31.7,90,75,60,29.71,29.48,0,0,0,0.00
2013-10-10,52.3,45.4,39.0,37.6,34.8,31.4,76,66,55,30.02,29.71,0,0,0,0.00
2013-10-11,52.3,45.2,36.9,42.5,37.6,30.5,81,75,68,30.09,30.02,0,0,0,0.00
2013-10-12,55.8,50.3,46.0,46.7,43.4,40.1,87,77,67,30.06,29.84,0,0,0,0.00
2013-10-13,54.7,49.7,45.7,47.6,44.8,41.1,91,83,73,29.84,29.60,0,0,0,0.00
2013-10-14,52.5,50.0,47.3,50.0,47.2,44.2,93,90,86,29.60,29.49,0,0,0,0.00
2013-10-15,54.0,49.6,45.5,47.8,45.6,42.7,91,86,79,29.56,29.46,0,0,0,0.00
2013-10-16,52.9,46.7,38.8,47.9,43.8,36.4,94,90,83,29.55,29.13,0,0,0,0.00
2013-10-17,50.7,48.1,45.7,48.9,46.5,44.1,95,94,93,29.54,29.18,0,0,0,0.00
2013-10-18,52.9,50.4,47.8,50.8,47.8,44.8,95,91,85,29.56,29.23,0,0,0,0.00
2013-10-19,55.0,52.9,48.6,53.7,51.5,47.2,96,95,94,29.22,28.98,0,0,0,0.00
2013-10-20,57.7,51.7,46.8,55.3,50.1,45.4,96,94,90,29.01,28.94,0,0,0,0.00
2013-10-21,55.9,52.5,48.6,54.1,50.7,46.9,96,93,87,29.06,28.78,0,0,0,0.00
2013-10-22,58.8,55.2,52.2,57.7,53.9,50.8,96,96,94,28.80,28.61,0,0,0,0.00
2013-10-23,55.2,50.9,43.2,53.9,48.4,40.4,96,91,82,29.10,28.51,0,0,0,0.00
2013-10-24,55.2,46.9,42.6,49.6,43.7,39.3,92,89,79,29.45,29.10,0,0,0,0.00
2013-10-25,49.6,45.9,43.3,47.4,43.6,41.1,93,92,91,29.40,29.24,0,0,0,0.00
2013-10-29,41.5,41.1,40.5,38.3,38.0,37.3,89,88,88,29.42,29.40,0,0,0,0.00
2013-10-30,53.4,45.4,36.7,49.1,42.5,34.3,92,90,82,29.47,29.12,0,0,0,0.00
2013-10-31,52.5,45.3,39.6,47.9,42.3,37.2,94,89,80,29.35,29.13,0,0,0,0.00